SKCG/CTG METAR and TAF weather

Enter ICAO airport designator
Station Type Date Time Source
SKCG METAR 2020/08/12 18:00 UTC NOAA

SKCG 121800Z VRB06KT 9999 FEW015 SCT200 34/26 A2974


Station Type Date Time Source
SKCG Decoded METAR 2020/08/12 18:00 UTC NOAA

Cartagena / Rafael Nunez, Colombia (SKCG) 10-27N 075-31W 12M
Aug 12, 2020 - 02:00 PM EDT / 2020.08.12 1800 UTC
Wind: Variable at 7 MPH (6 KT):0
Visibility: greater than 7 mile(s):0
Sky conditions: partly cloudy
Temperature: 93 F (34 C)
Heat index: 109.6 F (43.1 C):1
Dew Point: 78 F (26 C)
Relative Humidity: 63%
Pressure (altimeter): 29.74 in. Hg (1007 hPa)
ob: SKCG 121800Z VRB06KT 9999 FEW015 SCT200 34/26 A2974
cycle: 18

Station Type Date Time Source
SKCG TAF 2020/08/12 18:35 UTC NOAA

TAF SKCG 121630Z 1218/1318 01012KT 9999 FEW015 BKN200
BECMG 1303/1305 02005KT TX34/1218Z TN26/1311Z

Example: see airport list